sensor_id;sensor_type;location;lat;lon;timestamp;temperature;humidity
24638;DHT22;12773;50.162;8.548;2024-03-08T00:00:58;6.20;99.90
24638;DHT22;12773;50.162;8.548;2024-03-08T00:03:46;6.20;99.90
24638;DHT22;12773;50.162;8.548;2024-03-08T00:06:34;6.20;99.90
24638;DHT22;12773;50.162;8.548;2024-03-08T00:09:21;6.20;99.90
24638;DHT22;12773;50.162;8.548;2024-03-08T00:12:09;6.10;99.90
24638;DHT22;12773;50.162;8.548;2024-03-08T00:14:56;6.00;99.90
24638;DHT22;12773;50.162;8.548;2024-03-08T00:17:44;6.00;99.90
24638;DHT22;12773;50.162;8.548;2024-03-08T00:20:32;6.00;99.90
24638;DHT22;12773;50.162;8.548;2024-03-08T00:23:19;6.00;99.90
24638;DHT22;12773;50.162;8.548;2024-03-08T00:26:07;5.90;99.90
24638;DHT22;12773;50.162;8.548;2024-03-08T00:28:55;5.80;99.90
24638;DHT22;12773;50.162;8.548;2024-03-08T00:31:42;5.80;99.90
24638;DHT22;12773;50.162;8.548;2024-03-08T00:34:30;5.70;99.90
24638;DHT22;12773;50.162;8.548;2024-03-08T00:37:18;5.60;99.90
24638;DHT22;12773;50.162;8.548;2024-03-08T00:40:06;5.60;99.90
24638;DHT22;12773;50.162;8.548;2024-03-08T00:42:55;5.50;99.90
24638;DHT22;12773;50.162;8.548;2024-03-08T00:45:43;5.40;99.90
24638;DHT22;12773;50.162;8.548;2024-03-08T00:48:31;5.30;99.90
24638;DHT22;12773;50.162;8.548;2024-03-08T00:51:18;5.20;99.90
24638;DHT22;12773;50.162;8.548;2024-03-08T00:54:06;5.20;99.90
24638;DHT22;12773;50.162;8.548;2024-03-08T00:56:54;5.10;99.90
24638;DHT22;12773;50.162;8.548;2024-03-08T00:59:42;5.20;99.90
24638;DHT22;12773;50.162;8.548;2024-03-08T01:02:29;5.20;99.90
24638;DHT22;12773;50.162;8.548;2024-03-08T01:05:17;5.10;99.90
24638;DHT22;12773;50.162;8.548;2024-03-08T01:08:06;5.10;99.90
24638;DHT22;12773;50.162;8.548;2024-03-08T01:10:54;5.10;99.90
24638;DHT22;12773;50.162;8.548;2024-03-08T01:13:41;4.90;99.90
24638;DHT22;12773;50.162;8.548;2024-03-08T01:16:29;4.90;99.90
24638;DHT22;12773;50.162;8.548;2024-03-08T01:19:17;4.90;99.90
24638;DHT22;12773;50.162;8.548;2024-03-08T01:22:05;4.90;99.90
24638;DHT22;12773;50.162;8.548;2024-03-08T01:24:52;4.90;99.90
24638;DHT22;12773;50.162;8.548;2024-03-08T01:27:40;4.80;99.90
24638;DHT22;12773;50.162;8.548;2024-03-08T01:30:27;4.70;99.90
24638;DHT22;12773;50.162;8.548;2024-03-08T01:33:15;4.70;99.90
24638;DHT22;12773;50.162;8.548;2024-03-08T01:36:02;4.60;99.90
24638;DHT22;12773;50.162;8.548;2024-03-08T01:38:53;4.70;99.90
24638;DHT22;12773;50.162;8.548;2024-03-08T01:41:41;4.70;99.90
24638;DHT22;12773;50.162;8.548;2024-03-08T01:44:29;4.70;99.90
24638;DHT22;12773;50.162;8.548;2024-03-08T01:47:17;4.70;99.90
24638;DHT22;12773;50.162;8.548;2024-03-08T01:50:05;4.60;99.90
24638;DHT22;12773;50.162;8.548;2024-03-08T01:52:55;4.60;99.90
24638;DHT22;12773;50.162;8.548;2024-03-08T01:55:46;4.40;99.90
24638;DHT22;12773;50.162;8.548;2024-03-08T01:58:34;4.50;99.90
24638;DHT22;12773;50.162;8.548;2024-03-08T02:01:22;4.40;99.90
24638;DHT22;12773;50.162;8.548;2024-03-08T02:04:09;4.40;99.90
24638;DHT22;12773;50.162;8.548;2024-03-08T02:06:57;4.40;99.90
24638;DHT22;12773;50.162;8.548;2024-03-08T02:09:45;4.40;99.90
24638;DHT22;12773;50.162;8.548;2024-03-08T02:12:32;4.40;99.90
24638;DHT22;12773;50.162;8.548;2024-03-08T02:15:20;4.40;99.90
24638;DHT22;12773;50.162;8.548;2024-03-08T02:18:07;4.40;99.90
24638;DHT22;12773;50.162;8.548;2024-03-08T02:20:56;4.40;99.90
24638;DHT22;12773;50.162;8.548;2024-03-08T02:23:44;4.40;99.90
24638;DHT22;12773;50.162;8.548;2024-03-08T02:26:31;4.40;99.90
24638;DHT22;12773;50.162;8.548;2024-03-08T02:29:18;4.40;99.90
24638;DHT22;12773;50.162;8.548;2024-03-08T02:32:07;4.40;99.90
24638;DHT22;12773;50.162;8.548;2024-03-08T02:34:57;4.40;99.90
24638;DHT22;12773;50.162;8.548;2024-03-08T02:37:46;4.40;99.90
24638;DHT22;12773;50.162;8.548;2024-03-08T02:40:37;4.30;99.90
24638;DHT22;12773;50.162;8.548;2024-03-08T02:43:24;4.30;99.90
24638;DHT22;12773;50.162;8.548;2024-03-08T02:46:12;4.20;99.90
24638;DHT22;12773;50.162;8.548;2024-03-08T02:48:59;4.10;99.90
24638;DHT22;12773;50.162;8.548;2024-03-08T02:51:47;4.10;99.90
24638;DHT22;12773;50.162;8.548;2024-03-08T02:54:34;4.10;99.90
24638;DHT22;12773;50.162;8.548;2024-03-08T02:57:23;4.10;99.90
24638;DHT22;12773;50.162;8.548;2024-03-08T03:00:11;4.00;99.90
24638;DHT22;12773;50.162;8.548;2024-03-08T03:02:59;4.10;99.90
24638;DHT22;12773;50.162;8.548;2024-03-08T03:05:48;4.00;99.90
24638;DHT22;12773;50.162;8.548;2024-03-08T03:08:36;4.10;99.90
24638;DHT22;12773;50.162;8.548;2024-03-08T03:11:24;4.00;99.90
24638;DHT22;12773;50.162;8.548;2024-03-08T03:14:13;4.00;99.90
24638;DHT22;12773;50.162;8.548;2024-03-08T03:17:00;3.90;99.90
24638;DHT22;12773;50.162;8.548;2024-03-08T03:19:49;3.90;99.90
24638;DHT22;12773;50.162;8.548;2024-03-08T03:22:39;3.90;99.90
24638;DHT22;12773;50.162;8.548;2024-03-08T03:25:32;3.80;99.90
24638;DHT22;12773;50.162;8.548;2024-03-08T03:28:22;3.70;99.90
24638;DHT22;12773;50.162;8.548;2024-03-08T03:31:10;3.70;99.90
24638;DHT22;12773;50.162;8.548;2024-03-08T03:33:59;3.60;99.90
24638;DHT22;12773;50.162;8.548;2024-03-08T03:36:48;3.60;99.90
24638;DHT22;12773;50.162;8.548;2024-03-08T03:39:36;3.60;99.90
24638;DHT22;12773;50.162;8.548;2024-03-08T03:42:24;3.60;99.90
24638;DHT22;12773;50.162;8.548;2024-03-08T03:45:13;3.60;99.90
24638;DHT22;12773;50.162;8.548;2024-03-08T03:48:06;3.60;99.90
24638;DHT22;12773;50.162;8.548;2024-03-08T03:50:55;3.60;99.90
24638;DHT22;12773;50.162;8.548;2024-03-08T03:53:43;3.70;99.90
24638;DHT22;12773;50.162;8.548;2024-03-08T03:56:30;3.70;99.90
24638;DHT22;12773;50.162;8.548;2024-03-08T03:59:18;3.60;99.90
24638;DHT22;12773;50.162;8.548;2024-03-08T04:02:06;3.60;99.90
24638;DHT22;12773;50.162;8.548;2024-03-08T04:04:53;3.60;99.90
24638;DHT22;12773;50.162;8.548;2024-03-08T04:07:41;3.50;99.90
24638;DHT22;12773;50.162;8.548;2024-03-08T04:10:29;3.50;99.90
24638;DHT22;12773;50.162;8.548;2024-03-08T04:13:17;3.50;99.90
24638;DHT22;12773;50.162;8.548;2024-03-08T04:16:04;3.50;99.90
24638;DHT22;12773;50.162;8.548;2024-03-08T04:18:54;3.50;99.90
24638;DHT22;12773;50.162;8.548;2024-03-08T04:21:41;3.40;99.90
24638;DHT22;12773;50.162;8.548;2024-03-08T04:24:29;3.40;99.90
24638;DHT22;12773;50.162;8.548;2024-03-08T04:27:17;3.40;99.90
24638;DHT22;12773;50.162;8.548;2024-03-08T04:30:06;3.50;99.90
24638;DHT22;12773;50.162;8.548;2024-03-08T04:32:56;3.40;99.90
24638;DHT22;12773;50.162;8.548;2024-03-08T04:35:44;3.40;99.90
24638;DHT22;12773;50.162;8.548;2024-03-08T04:38:32;3.40;99.90
24638;DHT22;12773;50.162;8.548;2024-03-08T04:41:20;3.40;99.90
24638;DHT22;12773;50.162;8.548;2024-03-08T04:44:10;3.30;99.90
24638;DHT22;12773;50.162;8.548;2024-03-08T04:46:59;3.30;99.90
24638;DHT22;12773;50.162;8.548;2024-03-08T04:49:47;3.20;99.90
24638;DHT22;12773;50.162;8.548;2024-03-08T04:52:34;3.30;99.90
24638;DHT22;12773;50.162;8.548;2024-03-08T04:55:25;3.30;99.90
24638;DHT22;12773;50.162;8.548;2024-03-08T04:58:12;3.30;99.90
24638;DHT22;12773;50.162;8.548;2024-03-08T05:01:00;3.30;99.90
24638;DHT22;12773;50.162;8.548;2024-03-08T05:03:47;3.40;99.90
24638;DHT22;12773;50.162;8.548;2024-03-08T05:06:36;3.40;99.90
24638;DHT22;12773;50.162;8.548;2024-03-08T05:09:23;3.40;99.90
24638;DHT22;12773;50.162;8.548;2024-03-08T05:12:10;3.30;99.90
24638;DHT22;12773;50.162;8.548;2024-03-08T05:14:58;3.30;99.90
24638;DHT22;12773;50.162;8.548;2024-03-08T05:17:46;3.30;99.90
24638;DHT22;12773;50.162;8.548;2024-03-08T05:20:34;3.30;99.90
24638;DHT22;12773;50.162;8.548;2024-03-08T05:23:23;3.30;99.90
24638;DHT22;12773;50.162;8.548;2024-03-08T05:26:11;3.30;99.90
24638;DHT22;12773;50.162;8.548;2024-03-08T05:28:58;3.30;99.90
24638;DHT22;12773;50.162;8.548;2024-03-08T05:31:50;3.30;99.90
24638;DHT22;12773;50.162;8.548;2024-03-08T05:34:39;3.20;99.90
24638;DHT22;12773;50.162;8.548;2024-03-08T05:37:26;3.30;99.90
24638;DHT22;12773;50.162;8.548;2024-03-08T05:40:14;3.30;99.90
24638;DHT22;12773;50.162;8.548;2024-03-08T05:43:03;3.30;99.90
24638;DHT22;12773;50.162;8.548;2024-03-08T05:45:51;3.30;99.90
24638;DHT22;12773;50.162;8.548;2024-03-08T05:48:39;3.30;99.90
24638;DHT22;12773;50.162;8.548;2024-03-08T05:51:26;3.30;99.90
24638;DHT22;12773;50.162;8.548;2024-03-08T05:54:14;3.30;99.90
24638;DHT22;12773;50.162;8.548;2024-03-08T05:57:02;3.40;99.90
24638;DHT22;12773;50.162;8.548;2024-03-08T05:59:50;3.40;99.90
24638;DHT22;12773;50.162;8.548;2024-03-08T06:02:38;3.30;99.90
24638;DHT22;12773;50.162;8.548;2024-03-08T06:05:28;3.30;99.90
24638;DHT22;12773;50.162;8.548;2024-03-08T06:08:15;3.40;99.90
24638;DHT22;12773;50.162;8.548;2024-03-08T06:11:02;3.40;99.90
24638;DHT22;12773;50.162;8.548;2024-03-08T06:13:52;3.30;99.90
24638;DHT22;12773;50.162;8.548;2024-03-08T06:16:41;3.30;99.90
24638;DHT22;12773;50.162;8.548;2024-03-08T06:19:28;3.40;99.90
24638;DHT22;12773;50.162;8.548;2024-03-08T06:22:16;3.40;99.90
24638;DHT22;12773;50.162;8.548;2024-03-08T06:25:03;3.40;99.90
24638;DHT22;12773;50.162;8.548;2024-03-08T06:27:51;3.50;99.90
24638;DHT22;12773;50.162;8.548;2024-03-08T06:30:39;3.50;99.90
24638;DHT22;12773;50.162;8.548;2024-03-08T06:33:27;3.50;99.90
24638;DHT22;12773;50.162;8.548;2024-03-08T06:36:19;3.50;99.90
24638;DHT22;12773;50.162;8.548;2024-03-08T06:39:09;3.60;99.90
24638;DHT22;12773;50.162;8.548;2024-03-08T06:41:57;3.60;99.90
24638;DHT22;12773;50.162;8.548;2024-03-08T06:44:44;3.60;99.90
24638;DHT22;12773;50.162;8.548;2024-03-08T06:47:33;3.70;99.90
24638;DHT22;12773;50.162;8.548;2024-03-08T06:50:24;3.70;99.90
24638;DHT22;12773;50.162;8.548;2024-03-08T06:53:12;3.70;99.90
24638;DHT22;12773;50.162;8.548;2024-03-08T06:56:00;3.70;99.90
24638;DHT22;12773;50.162;8.548;2024-03-08T06:58:48;3.90;99.90
24638;DHT22;12773;50.162;8.548;2024-03-08T07:01:35;4.00;99.90
24638;DHT22;12773;50.162;8.548;2024-03-08T07:04:23;4.00;99.90
24638;DHT22;12773;50.162;8.548;2024-03-08T07:07:12;4.00;99.90
24638;DHT22;12773;50.162;8.548;2024-03-08T07:10:00;4.00;99.90
24638;DHT22;12773;50.162;8.548;2024-03-08T07:12:47;4.10;99.90
24638;DHT22;12773;50.162;8.548;2024-03-08T07:15:34;4.10;99.90
24638;DHT22;12773;50.162;8.548;2024-03-08T07:18:22;4.10;99.90
24638;DHT22;12773;50.162;8.548;2024-03-08T07:21:10;4.10;99.90
24638;DHT22;12773;50.162;8.548;2024-03-08T07:23:58;4.20;99.90
24638;DHT22;12773;50.162;8.548;2024-03-08T07:26:50;4.30;99.90
24638;DHT22;12773;50.162;8.548;2024-03-08T07:29:38;4.40;99.90
24638;DHT22;12773;50.162;8.548;2024-03-08T07:32:26;4.50;99.90
24638;DHT22;12773;50.162;8.548;2024-03-08T07:35:15;4.70;99.90
24638;DHT22;12773;50.162;8.548;2024-03-08T07:38:05;4.70;99.90
24638;DHT22;12773;50.162;8.548;2024-03-08T07:40:52;4.80;99.90
24638;DHT22;12773;50.162;8.548;2024-03-08T07:43:40;4.80;99.90
24638;DHT22;12773;50.162;8.548;2024-03-08T07:46:28;4.90;99.90
24638;DHT22;12773;50.162;8.548;2024-03-08T07:49:18;5.00;99.90
24638;DHT22;12773;50.162;8.548;2024-03-08T07:52:06;5.10;99.90
24638;DHT22;12773;50.162;8.548;2024-03-08T07:54:53;5.20;99.90
24638;DHT22;12773;50.162;8.548;2024-03-08T07:57:41;5.20;99.90
24638;DHT22;12773;50.162;8.548;2024-03-08T08:00:30;5.20;99.90
24638;DHT22;12773;50.162;8.548;2024-03-08T08:03:18;5.20;99.90
24638;DHT22;12773;50.162;8.548;2024-03-08T08:06:07;5.20;99.90
24638;DHT22;12773;50.162;8.548;2024-03-08T08:08:55;5.40;99.90
24638;DHT22;12773;50.162;8.548;2024-03-08T08:11:42;5.60;99.90
24638;DHT22;12773;50.162;8.548;2024-03-08T08:14:30;5.60;99.90
24638;DHT22;12773;50.162;8.548;2024-03-08T08:17:18;5.80;99.90
24638;DHT22;12773;50.162;8.548;2024-03-08T08:20:07;5.70;99.90
24638;DHT22;12773;50.162;8.548;2024-03-08T08:22:54;5.70;99.90
24638;DHT22;12773;50.162;8.548;2024-03-08T08:25:42;5.80;99.90
24638;DHT22;12773;50.162;8.548;2024-03-08T08:28:30;6.10;99.90
24638;DHT22;12773;50.162;8.548;2024-03-08T08:31:17;6.30;99.90
24638;DHT22;12773;50.162;8.548;2024-03-08T08:34:05;6.20;99.90
24638;DHT22;12773;50.162;8.548;2024-03-08T08:36:53;6.20;99.90
24638;DHT22;12773;50.162;8.548;2024-03-08T08:39:42;6.40;99.90
24638;DHT22;12773;50.162;8.548;2024-03-08T08:42:30;6.40;99.90
24638;DHT22;12773;50.162;8.548;2024-03-08T08:45:17;6.50;99.90
24638;DHT22;12773;50.162;8.548;2024-03-08T08:48:07;6.80;99.90
24638;DHT22;12773;50.162;8.548;2024-03-08T08:50:54;6.90;99.90
24638;DHT22;12773;50.162;8.548;2024-03-08T08:53:42;7.20;99.90
24638;DHT22;12773;50.162;8.548;2024-03-08T08:56:32;7.30;99.90
24638;DHT22;12773;50.162;8.548;2024-03-08T08:59:19;7.50;99.90
24638;DHT22;12773;50.162;8.548;2024-03-08T09:02:08;7.30;99.90
24638;DHT22;12773;50.162;8.548;2024-03-08T09:04:57;7.30;99.90
24638;DHT22;12773;50.162;8.548;2024-03-08T09:07:44;7.60;99.90
24638;DHT22;12773;50.162;8.548;2024-03-08T09:10:32;8.10;99.90
24638;DHT22;12773;50.162;8.548;2024-03-08T09:13:20;8.20;99.90
24638;DHT22;12773;50.162;8.548;2024-03-08T09:16:09;8.40;99.90
24638;DHT22;12773;50.162;8.548;2024-03-08T09:18:57;8.60;99.90
24638;DHT22;12773;50.162;8.548;2024-03-08T09:21:44;8.60;99.90
24638;DHT22;12773;50.162;8.548;2024-03-08T09:24:31;8.80;99.90
24638;DHT22;12773;50.162;8.548;2024-03-08T09:27:19;9.20;99.90
24638;DHT22;12773;50.162;8.548;2024-03-08T09:30:07;9.40;99.90
24638;DHT22;12773;50.162;8.548;2024-03-08T09:32:55;9.80;99.90
24638;DHT22;12773;50.162;8.548;2024-03-08T09:35:43;10.00;99.90
24638;DHT22;12773;50.162;8.548;2024-03-08T09:38:33;9.60;99.90
24638;DHT22;12773;50.162;8.548;2024-03-08T09:41:23;9.40;99.90
24638;DHT22;12773;50.162;8.548;2024-03-08T09:44:11;9.70;99.90
24638;DHT22;12773;50.162;8.548;2024-03-08T09:46:59;9.60;99.90
24638;DHT22;12773;50.162;8.548;2024-03-08T09:49:48;9.50;99.90
24638;DHT22;12773;50.162;8.548;2024-03-08T09:52:37;9.90;99.90
24638;DHT22;12773;50.162;8.548;2024-03-08T09:55:26;9.80;99.90
24638;DHT22;12773;50.162;8.548;2024-03-08T09:58:16;10.20;99.90
24638;DHT22;12773;50.162;8.548;2024-03-08T10:01:05;10.80;99.90
24638;DHT22;12773;50.162;8.548;2024-03-08T10:03:53;10.40;99.90
24638;DHT22;12773;50.162;8.548;2024-03-08T10:06:41;10.50;99.90
24638;DHT22;12773;50.162;8.548;2024-03-08T10:09:30;11.40;99.90
24638;DHT22;12773;50.162;8.548;2024-03-08T10:12:17;11.40;99.90
24638;DHT22;12773;50.162;8.548;2024-03-08T10:15:09;11.30;99.90
24638;DHT22;12773;50.162;8.548;2024-03-08T10:17:58;11.40;99.90
24638;DHT22;12773;50.162;8.548;2024-03-08T10:20:46;11.60;99.90
24638;DHT22;12773;50.162;8.548;2024-03-08T10:23:34;11.50;99.90
24638;DHT22;12773;50.162;8.548;2024-03-08T10:26:21;11.50;99.90
24638;DHT22;12773;50.162;8.548;2024-03-08T10:29:09;12.10;99.90
24638;DHT22;12773;50.162;8.548;2024-03-08T10:31:58;12.60;99.90
24638;DHT22;12773;50.162;8.548;2024-03-08T10:34:47;12.90;99.00
24638;DHT22;12773;50.162;8.548;2024-03-08T10:37:47;12.50;99.30
24638;DHT22;12773;50.162;8.548;2024-03-08T10:40:35;12.80;99.20
24638;DHT22;12773;50.162;8.548;2024-03-08T10:43:27;13.20;97.50
24638;DHT22;12773;50.162;8.548;2024-03-08T10:46:38;13.70;99.60
24638;DHT22;12773;50.162;8.548;2024-03-08T10:49:22;13.90;97.00
24638;DHT22;12773;50.162;8.548;2024-03-08T10:52:10;14.20;94.50
24638;DHT22;12773;50.162;8.548;2024-03-08T10:54:59;14.80;95.40
24638;DHT22;12773;50.162;8.548;2024-03-08T10:57:48;15.00;92.70
24638;DHT22;12773;50.162;8.548;2024-03-08T11:00:37;15.30;92.10
24638;DHT22;12773;50.162;8.548;2024-03-08T11:09:36;15.70;85.40
24638;DHT22;12773;50.162;8.548;2024-03-08T11:12:25;15.70;88.40
24638;DHT22;12773;50.162;8.548;2024-03-08T11:15:14;15.80;85.50
24638;DHT22;12773;50.162;8.548;2024-03-08T11:18:04;15.60;83.70
24638;DHT22;12773;50.162;8.548;2024-03-08T11:20:55;15.70;83.80
24638;DHT22;12773;50.162;8.548;2024-03-08T11:24:09;15.90;81.60
24638;DHT22;12773;50.162;8.548;2024-03-08T11:26:34;16.10;82.50
24638;DHT22;12773;50.162;8.548;2024-03-08T11:32:22;16.50;82.00
24638;DHT22;12773;50.162;8.548;2024-03-08T11:35:22;16.80;78.30
24638;DHT22;12773;50.162;8.548;2024-03-08T11:38:08;16.40;72.70
24638;DHT22;12773;50.162;8.548;2024-03-08T11:43:36;16.30;73.70
24638;DHT22;12773;50.162;8.548;2024-03-08T11:46:25;16.40;72.20
24638;DHT22;12773;50.162;8.548;2024-03-08T11:49:14;16.10;69.90
24638;DHT22;12773;50.162;8.548;2024-03-08T11:52:02;16.30;75.10
24638;DHT22;12773;50.162;8.548;2024-03-08T11:54:54;16.70;76.10
24638;DHT22;12773;50.162;8.548;2024-03-08T11:57:44;16.40;68.50
24638;DHT22;12773;50.162;8.548;2024-03-08T12:00:32;15.90;73.70
24638;DHT22;12773;50.162;8.548;2024-03-08T12:03:22;16.20;71.70
24638;DHT22;12773;50.162;8.548;2024-03-08T12:06:10;16.10;72.70
24638;DHT22;12773;50.162;8.548;2024-03-08T12:08:59;16.60;74.50
24638;DHT22;12773;50.162;8.548;2024-03-08T12:11:49;16.60;71.30
24638;DHT22;12773;50.162;8.548;2024-03-08T12:14:37;17.10;72.50
24638;DHT22;12773;50.162;8.548;2024-03-08T12:17:25;17.40;69.40
24638;DHT22;12773;50.162;8.548;2024-03-08T12:20:17;17.60;69.10
24638;DHT22;12773;50.162;8.548;2024-03-08T12:23:05;17.70;69.30
24638;DHT22;12773;50.162;8.548;2024-03-08T12:25:52;17.80;68.00
24638;DHT22;12773;50.162;8.548;2024-03-08T12:28:41;18.00;68.70
24638;DHT22;12773;50.162;8.548;2024-03-08T12:31:32;17.90;64.00
24638;DHT22;12773;50.162;8.548;2024-03-08T12:34:20;17.90;63.70
24638;DHT22;12773;50.162;8.548;2024-03-08T12:37:07;18.00;63.50
24638;DHT22;12773;50.162;8.548;2024-03-08T12:39:56;18.10;65.00
24638;DHT22;12773;50.162;8.548;2024-03-08T12:42:45;18.00;61.80
24638;DHT22;12773;50.162;8.548;2024-03-08T12:45:36;18.20;65.70
24638;DHT22;12773;50.162;8.548;2024-03-08T12:48:23;18.40;63.90
24638;DHT22;12773;50.162;8.548;2024-03-08T12:51:17;18.50;63.10
24638;DHT22;12773;50.162;8.548;2024-03-08T12:54:02;18.40;62.20
24638;DHT22;12773;50.162;8.548;2024-03-08T12:56:51;18.10;61.40
24638;DHT22;12773;50.162;8.548;2024-03-08T12:59:42;18.10;61.20
24638;DHT22;12773;50.162;8.548;2024-03-08T13:02:29;17.80;60.80
24638;DHT22;12773;50.162;8.548;2024-03-08T13:05:18;17.80;62.10
24638;DHT22;12773;50.162;8.548;2024-03-08T13:08:07;17.90;61.70
24638;DHT22;12773;50.162;8.548;2024-03-08T13:10:56;17.90;64.80
24638;DHT22;12773;50.162;8.548;2024-03-08T13:13:44;17.70;61.70
24638;DHT22;12773;50.162;8.548;2024-03-08T13:16:31;17.60;63.10
24638;DHT22;12773;50.162;8.548;2024-03-08T13:19:21;17.50;63.20
24638;DHT22;12773;50.162;8.548;2024-03-08T13:22:09;17.00;60.90
24638;DHT22;12773;50.162;8.548;2024-03-08T13:24:58;16.70;62.60
24638;DHT22;12773;50.162;8.548;2024-03-08T13:27:47;17.00;65.20
24638;DHT22;12773;50.162;8.548;2024-03-08T13:30:35;17.00;65.10
24638;DHT22;12773;50.162;8.548;2024-03-08T13:33:23;17.00;65.70
24638;DHT22;12773;50.162;8.548;2024-03-08T13:36:11;17.10;65.70
24638;DHT22;12773;50.162;8.548;2024-03-08T13:39:01;17.20;63.60
24638;DHT22;12773;50.162;8.548;2024-03-08T13:41:50;17.10;65.10
24638;DHT22;12773;50.162;8.548;2024-03-08T13:44:38;17.10;64.40
24638;DHT22;12773;50.162;8.548;2024-03-08T13:47:26;17.10;63.40
24638;DHT22;12773;50.162;8.548;2024-03-08T13:50:13;16.90;63.60
24638;DHT22;12773;50.162;8.548;2024-03-08T13:53:02;16.90;65.10
24638;DHT22;12773;50.162;8.548;2024-03-08T13:55:50;17.00;65.30
24638;DHT22;12773;50.162;8.548;2024-03-08T13:58:38;16.90;65.50
24638;DHT22;12773;50.162;8.548;2024-03-08T14:01:30;16.90;66.20
24638;DHT22;12773;50.162;8.548;2024-03-08T14:04:17;17.00;64.90
24638;DHT22;12773;50.162;8.548;2024-03-08T14:07:05;17.00;65.40
24638;DHT22;12773;50.162;8.548;2024-03-08T14:09:54;16.90;65.20
24638;DHT22;12773;50.162;8.548;2024-03-08T14:12:42;16.90;67.10
24638;DHT22;12773;50.162;8.548;2024-03-08T14:15:31;16.40;63.10
24638;DHT22;12773;50.162;8.548;2024-03-08T14:18:18;16.60;69.40
24638;DHT22;12773;50.162;8.548;2024-03-08T14:21:06;16.50;66.60
24638;DHT22;12773;50.162;8.548;2024-03-08T14:23:55;16.50;66.70
24638;DHT22;12773;50.162;8.548;2024-03-08T14:26:43;16.50;68.30
24638;DHT22;12773;50.162;8.548;2024-03-08T14:29:30;16.40;67.10
24638;DHT22;12773;50.162;8.548;2024-03-08T14:32:19;16.50;66.00
24638;DHT22;12773;50.162;8.548;2024-03-08T14:35:08;16.60;67.70
24638;DHT22;12773;50.162;8.548;2024-03-08T14:37:57;16.50;66.60
24638;DHT22;12773;50.162;8.548;2024-03-08T14:40:45;16.40;66.30
24638;DHT22;12773;50.162;8.548;2024-03-08T14:43:33;16.40;67.40
24638;DHT22;12773;50.162;8.548;2024-03-08T14:46:21;16.30;66.20
24638;DHT22;12773;50.162;8.548;2024-03-08T14:49:09;16.40;67.70
24638;DHT22;12773;50.162;8.548;2024-03-08T14:51:57;16.30;66.50
24638;DHT22;12773;50.162;8.548;2024-03-08T14:54:47;16.10;65.30
24638;DHT22;12773;50.162;8.548;2024-03-08T14:57:35;16.10;67.20
24638;DHT22;12773;50.162;8.548;2024-03-08T15:00:22;16.10;64.60
24638;DHT22;12773;50.162;8.548;2024-03-08T15:03:17;16.10;67.80
24638;DHT22;12773;50.162;8.548;2024-03-08T15:06:06;16.20;68.50
24638;DHT22;12773;50.162;8.548;2024-03-08T15:08:57;16.20;68.20
24638;DHT22;12773;50.162;8.548;2024-03-08T15:11:46;16.20;66.70
24638;DHT22;12773;50.162;8.548;2024-03-08T15:14:40;16.10;65.80
24638;DHT22;12773;50.162;8.548;2024-03-08T15:17:29;16.20;66.60
24638;DHT22;12773;50.162;8.548;2024-03-08T15:20:17;16.20;68.10
24638;DHT22;12773;50.162;8.548;2024-03-08T15:23:06;16.20;67.80
24638;DHT22;12773;50.162;8.548;2024-03-08T15:25:56;16.10;66.80
24638;DHT22;12773;50.162;8.548;2024-03-08T15:28:44;16.00;67.20
24638;DHT22;12773;50.162;8.548;2024-03-08T15:31:33;16.00;66.90
24638;DHT22;12773;50.162;8.548;2024-03-08T15:34:21;15.90;66.70
24638;DHT22;12773;50.162;8.548;2024-03-08T15:37:10;15.80;65.10
24638;DHT22;12773;50.162;8.548;2024-03-08T15:39:58;15.70;65.90
24638;DHT22;12773;50.162;8.548;2024-03-08T15:42:51;15.60;66.80
24638;DHT22;12773;50.162;8.548;2024-03-08T15:45:34;15.60;68.10
24638;DHT22;12773;50.162;8.548;2024-03-08T15:48:23;15.50;67.00
24638;DHT22;12773;50.162;8.548;2024-03-08T15:51:11;15.40;69.30
24638;DHT22;12773;50.162;8.548;2024-03-08T15:54:00;15.40;68.00
24638;DHT22;12773;50.162;8.548;2024-03-08T15:56:47;15.50;68.50
24638;DHT22;12773;50.162;8.548;2024-03-08T15:59:36;15.50;68.30
24638;DHT22;12773;50.162;8.548;2024-03-08T16:02:24;15.60;69.10
24638;DHT22;12773;50.162;8.548;2024-03-08T16:05:11;15.50;69.70
24638;DHT22;12773;50.162;8.548;2024-03-08T16:08:00;15.50;69.30
24638;DHT22;12773;50.162;8.548;2024-03-08T16:10:50;15.50;68.80
24638;DHT22;12773;50.162;8.548;2024-03-08T16:13:39;15.50;68.30
24638;DHT22;12773;50.162;8.548;2024-03-08T16:16:27;15.40;68.20
24638;DHT22;12773;50.162;8.548;2024-03-08T16:19:17;15.30;66.50
24638;DHT22;12773;50.162;8.548;2024-03-08T16:22:04;15.30;68.20
24638;DHT22;12773;50.162;8.548;2024-03-08T16:24:52;15.80;67.20
24638;DHT22;12773;50.162;8.548;2024-03-08T16:27:40;15.60;66.30
24638;DHT22;12773;50.162;8.548;2024-03-08T16:30:28;15.40;66.20
24638;DHT22;12773;50.162;8.548;2024-03-08T16:33:17;15.20;66.50
24638;DHT22;12773;50.162;8.548;2024-03-08T16:36:05;15.00;66.30
24638;DHT22;12773;50.162;8.548;2024-03-08T16:38:53;14.80;67.90
24638;DHT22;12773;50.162;8.548;2024-03-08T16:41:40;14.70;67.60
24638;DHT22;12773;50.162;8.548;2024-03-08T16:44:28;14.50;66.20
24638;DHT22;12773;50.162;8.548;2024-03-08T16:47:17;14.40;67.80
24638;DHT22;12773;50.162;8.548;2024-03-08T16:50:05;14.30;69.10
24638;DHT22;12773;50.162;8.548;2024-03-08T16:52:53;14.10;68.90
24638;DHT22;12773;50.162;8.548;2024-03-08T16:55:42;13.90;69.30
24638;DHT22;12773;50.162;8.548;2024-03-08T16:58:30;13.70;71.00
24638;DHT22;12773;50.162;8.548;2024-03-08T17:01:19;13.60;70.50
24638;DHT22;12773;50.162;8.548;2024-03-08T17:04:06;13.40;70.90
24638;DHT22;12773;50.162;8.548;2024-03-08T17:06:54;13.30;71.30
24638;DHT22;12773;50.162;8.548;2024-03-08T17:09:43;13.10;72.20
24638;DHT22;12773;50.162;8.548;2024-03-08T17:12:31;12.90;71.70
24638;DHT22;12773;50.162;8.548;2024-03-08T17:15:20;12.80;72.70
24638;DHT22;12773;50.162;8.548;2024-03-08T17:18:10;12.60;73.40
24638;DHT22;12773;50.162;8.548;2024-03-08T17:20:59;12.50;72.90
24638;DHT22;12773;50.162;8.548;2024-03-08T17:23:46;12.40;73.20
24638;DHT22;12773;50.162;8.548;2024-03-08T17:26:34;12.30;72.80
24638;DHT22;12773;50.162;8.548;2024-03-08T17:29:23;12.20;73.20
24638;DHT22;12773;50.162;8.548;2024-03-08T17:32:10;12.10;74.30
24638;DHT22;12773;50.162;8.548;2024-03-08T17:34:57;12.00;74.60
24638;DHT22;12773;50.162;8.548;2024-03-08T17:37:51;11.90;74.70
24638;DHT22;12773;50.162;8.548;2024-03-08T17:40:41;11.80;76.20
24638;DHT22;12773;50.162;8.548;2024-03-08T17:43:31;11.80;75.60
24638;DHT22;12773;50.162;8.548;2024-03-08T17:46:19;11.70;75.30
24638;DHT22;12773;50.162;8.548;2024-03-08T17:49:07;11.60;76.20
24638;DHT22;12773;50.162;8.548;2024-03-08T17:51:54;11.40;77.80
24638;DHT22;12773;50.162;8.548;2024-03-08T17:54:45;11.10;80.30
24638;DHT22;12773;50.162;8.548;2024-03-08T17:57:32;10.90;83.30
24638;DHT22;12773;50.162;8.548;2024-03-08T18:00:21;10.60;86.10
24638;DHT22;12773;50.162;8.548;2024-03-08T18:03:16;10.50;87.00
24638;DHT22;12773;50.162;8.548;2024-03-08T18:06:04;10.50;87.80